METAR stanice u blizini

 

LYNI - Nis, Yugoslavia
Distance from station: JZ 40km
Ažurirano: 12/08/2020 11:00
Few Clouds
Few Clouds
 Pravac vetra varies
Vetar: varies 7 km/h
Temperatura: 27°C
Heat Index: 28°C
Tačka rose: 19°C
Vlažnost: 62%
Pritisak: 1017 hPa
Oblaci: Few Clouds
Vidljivost: 10 km
Cloud details: Few Clouds 1219 m
2020/08/12 09:00 LYNI 120900Z VRB04KT 9999 FEW040 27/19 Q1017 NOSIG
LYKV - Kraljevo, Yugoslavia
Distance from station: ZSZ 136km
Ažurirano: 12/08/2020 11:00
Delimično oblačno
Delimično oblačno
 Pravac vetra ZSZ
Vetar: ZSZ 6 km/h
Temperatura: 27°C
Heat Index: 29°C
Tačka rose: 21°C
Vlažnost: 70%
Pritisak: 1018 hPa
Oblaci: Delimično oblačno
Vidljivost: 10 km
Cloud details: Delimično oblačno 1219 m
2020/08/12 09:00 LYKV 120900Z 29003KT 230V350 9999 SCT040 27/21 Q1018 NOSIG
LBSF - Sofia (observato, Bulgaria
Distance from station: JI 138km
Ažurirano: 12/08/2020 11:00
Delimično oblačno
Delimično oblačno
 Pravac vetra varies
Vetar: varies 6 km/h
Temperatura: 26°C
Tačka rose: 17°C
Vlažnost: 58%
Pritisak: 1018 hPa
Oblaci: Delimično oblačno
Vidljivost: 10 km
Cloud details: Few Clouds 1219 m
Delimično oblačno 1829 m
2020/08/12 09:00 LBSF 120900Z VRB03KT 9999 FEW040CB SCT060 26/17 Q1018 NOSIG
 
BKPR - Prishtina, Yugoslavia
Distance from station: JZ 147km
Ažurirano: 12/08/2020 11:00
Delimično oblačno
Delimično oblačno
 Pravac vetra varies
Vetar: varies 4 km/h
Temperatura: 26°C
Tačka rose: 16°C
Vlažnost: 54%
Pritisak: 1019 hPa
Oblaci: Delimično oblačno
Vidljivost: 10 km
Cloud details: Few Clouds 914 m
Delimično oblačno 2743 m
2020/08/12 09:00 BKPR 120900Z VRB02KT 9999 FEW030TCU SCT090 26/16 Q1019 NOSIG
LRCV - Craiova, Romania
Distance from station: SI 154km
Ažurirano: 12/08/2020 11:00
Vedro
Vedro
 Pravac vetra J
Vetar: J 9 km/h
Temperatura: 29°C
Heat Index: 29°C
Tačka rose: 15°C
Vlažnost: 43%
Pritisak: 1016 hPa
Pregled: Vedro
Vidljivost: greater than 10 km
2020/08/12 09:00 LRCV 120900Z 18005KT 090V250 CAVOK 29/15 Q1016
LWSK - Skopje/Petrovac, Macedonia
Distance from station: JJZ 185km
Ažurirano: 12/08/2020 11:00
Vedro
Vedro
 Pravac vetra ZJZ
Vetar: ZJZ 4 km/h
Temperatura: 28°C
Heat Index: 29°C
Tačka rose: 19°C
Vlažnost: 58%
Pritisak: 1017 hPa
Pregled: Vedro
Vidljivost: greater than 10 km
2020/08/12 09:00 LWSK 120900Z 24002KT CAVOK 28/19 Q1017 NOSIG
 
LYVR - Vrsac, Yugoslavia
Distance from station: SSZ 189km
Ažurirano: 12/08/2020 11:00
Vedro
Vedro
 Pravac vetra varies
Vetar: varies 4 km/h
Temperatura: 28°C
Heat Index: 29°C
Tačka rose: 18°C
Vlažnost: 55%
Pritisak: 1017 hPa
Pregled: Vedro
Vidljivost: greater than 10 km
2020/08/12 09:00 LYVR 120900Z VRB02KT CAVOK 28/18 Q1017
LYUZ - Uzice-Ponikve, Yugoslavia
Distance from station: Z 207km
Ažurirano: 12/08/2020 11:00
Few Clouds
Few Clouds
 Pravac vetra ZSZ
Vetar: ZSZ 6 km/h
Temperatura: 21°C
Tačka rose: 19°C
Vlažnost: 88%
Pritisak: 1022 hPa
Oblaci: Few Clouds
Vidljivost: 10 km
Cloud details: Few Clouds 701 m
2020/08/12 09:00 LYUZ 120900Z 30003KT 230V010 9999 FEW023 21/19 Q1022
LYBE - Belgrade/Surcin, Yugoslavia
Distance from station: SZ 209km
Ažurirano: 12/08/2020 11:00
Vedro
Vedro
 Pravac vetra ZJZ
Vetar: ZJZ 15 km/h
Temperatura: 25°C
Tačka rose: 19°C
Vlažnost: 69%
Pritisak: 1018 hPa
Pregled: Vedro
Vidljivost: greater than 10 km
2020/08/12 09:00 LYBE 120900Z 25008KT 230V290 CAVOK 25/19 Q1018 NOSIG
 
LYBT - Batajnica, Yugoslavia
Distance from station: SZ 219km
Ažurirano: 12/08/2020 11:00
Vedro
Vedro
 Pravac vetra ZJZ
Vetar: ZJZ 7 km/h
Temperatura: 26°C
Tačka rose: 19°C
Vlažnost: 65%
Pritisak: 1017 hPa
Pregled: Vedro
Vidljivost: greater than 10 km
2020/08/12 09:00 LYBT 120900Z 24004KT 150V310 CAVOK 26/19 Q1017 NOSIG
LRTR - Timisoara/Giarma, Romania
Distance from station: SSZ 260km
Ažurirano: 12/08/2020 11:00
Vedro
Vedro
 Pravac vetra SSZ
Vetar: SSZ 11 km/h, Maks.: 31 km/h
Temperatura: 29°C
Heat Index: 29°C
Tačka rose: 18°C
Vlažnost: 51%
Pritisak: 1017 hPa
Pregled: Vedro
Vidljivost: greater than 10 km
2020/08/12 09:00 LRTR 120900Z 34006G17KT 300V020 CAVOK 29/18 Q1017
LBPD - Plovdiv, Bulgaria
Distance from station: JI 263km
Ažurirano: 12/08/2020 11:00
Vedro
Vedro
 Pravac vetra SZ
Vetar: SZ 17 km/h
Temperatura: 31°C
Heat Index: 31°C
Tačka rose: 16°C
Vlažnost: 40%
Pritisak: 1014 hPa
Oblaci: Vedro
Vidljivost: 10 km
2020/08/12 09:00 LBPD 120900Z AUTO 31009KT 250V010 9999 NCD 31/16 Q1014 NOSIG
 
LYPG - Podgorica(Titogr, Yugoslavia
Distance from station: ZJZ 278km
Ažurirano: 12/08/2020 11:00
Few Clouds
Few Clouds
 Pravac vetra I
Vetar: I 6 km/h
Temperatura: 31°C
Tačka rose: 15°C
Vlažnost: 38%
Pritisak: 1015 hPa
Oblaci: Few Clouds
Vidljivost: 10 km
Cloud details: Few Clouds 1219 m
2020/08/12 09:00 LYPG 120900Z 09003KT 050V180 9999 FEW040 31/15 Q1015 NOSIG
LBGO - Gorna Orechovist, Bulgaria
Distance from station: I 285km
Ažurirano: 12/08/2020 11:00
Vedro
Vedro
 Pravac vetra ZSZ
Vetar: ZSZ 7 km/h
Temperatura: 30°C
Heat Index: 31°C
Tačka rose: 17°C
Vlažnost: 46%
Pritisak: 1015 hPa
Oblaci: Vedro
Vidljivost: 10 km
2020/08/12 09:00 LBGO 120900Z AUTO 29004KT 230V350 9999 NCD 30/17 Q1015 NOSIG
LRSB - Sibiu/Turnisor, Romania
Distance from station: SSI 286km
Ažurirano: 12/08/2020 11:00
Few Clouds
Few Clouds
 Pravac vetra varies
Vetar: varies 6 km/h
Temperatura: 25°C
Tačka rose: 14°C
Vlažnost: 51%
Pritisak: 1018 hPa
Oblaci: Few Clouds
Vidljivost: 10 km
Cloud details: Few Clouds 1433 m
2020/08/12 09:00 LRSB 120900Z VRB03KT 9999 FEW047TCU 25/14 Q1018
 
LWOH - Ohrid, Macedonia
Distance from station: JJZ 292km
Ažurirano: 12/08/2020 11:00
Few Clouds
Few Clouds
 Pravac vetra JJI
Vetar: JJI 7 km/h
Temperatura: 23°C
Tačka rose: 17°C
Vlažnost: 69%
Pritisak: 1019 hPa
Oblaci: Few Clouds
Vidljivost: 10 km
Cloud details: Few Clouds 1219 m
2020/08/12 09:00 LWOH 120900Z 15004KT 9999 FEW040 23/17 Q1019
LQTZ - Tuzla, Yugoslavia
Distance from station: ZSZ 298km
Ažurirano: 12/08/2020 11:00
Few Clouds
Few Clouds
 Pravac vetra varies
Vetar: varies 4 km/h
Temperatura: 25°C
Tačka rose: 20°C
Vlažnost: 74%
Pritisak: 1018 hPa
Oblaci: Few Clouds
Vidljivost: 10 km
Cloud details: Few Clouds 1067 m
2020/08/12 09:00 LQTZ 120900Z VRB02KT 9999 FEW035 25/20 Q1018
LRAR - Arad, Romania
Distance from station: SSZ 301km
Ažurirano: 12/08/2020 11:00
Vedro
Vedro
 Pravac vetra S
Vetar: S 11 km/h
Temperatura: 28°C
Heat Index: 28°C
Tačka rose: 17°C
Vlažnost: 51%
Pritisak: 1017 hPa
Pregled: Vedro
Vidljivost: greater than 10 km
2020/08/12 09:00 LRAR 120900Z 01006KT 320V060 CAVOK 28/17 Q1017
 
LYTV - Tivat, Yugoslavia
Distance from station: ZJZ 315km
Ažurirano: 12/08/2020 11:00
Few Clouds
Few Clouds
 Pravac vetra ZSZ
Vetar: ZSZ 7 km/h
Temperatura: 30°C
Heat Index: 32°C
Tačka rose: 20°C
Vlažnost: 55%
Pritisak: 1014 hPa
Oblaci: Few Clouds
Vidljivost: 10 km
Cloud details: Few Clouds 1829 m
2020/08/12 09:00 LYTV 120900Z 29004KT 240V330 9999 FEW060 30/20 Q1014 NOSIG
LATI - Tirana, Albania
Distance from station: JZ 316km
Ažurirano: 12/08/2020 11:20
Vedro
Vedro
 Pravac vetra varies
Vetar: varies 2 km/h
Temperatura: 32°C
Heat Index: 34°C
Tačka rose: 19°C
Vlažnost: 46%
Pritisak: 1015 hPa
Pregled: Vedro
Vidljivost: greater than 10 km
2020/08/12 09:20 LATI 120920Z VRB01KT CAVOK 32/19 Q1015 NOSIG
LQBK - Banja Luka, Yugoslavia
Distance from station: SZ 426km
Ažurirano: 12/08/2020 11:00
Vedro
Vedro
 Pravac vetra I
Vetar: I 7 km/h
Temperatura: 27°C
Heat Index: 28°C
Tačka rose: 19°C
Vlažnost: 62%
Pritisak: 1018 hPa
Pregled: Vedro
Vidljivost: greater than 10 km
2020/08/12 09:00 LQBK 120900Z 08004KT CAVOK 27/19 Q1018 NOSIG
 
LDOS - Osijek, Croatia
Distance from station: SSZ 360km
Ažurirano: 12/08/2020 11:00
Vedro
Vedro
 Pravac vetra S
Vetar: S 7 km/h
Temperatura: 27°C
Heat Index: 28°C
Tačka rose: 19°C
Vlažnost: 62%
Pritisak: 1018 hPa
Pregled: Vedro
Vidljivost: greater than 10 km
2020/08/12 09:00 LDOS 120900Z 01004KT 340V060 CAVOK 27/19 Q1018
LDDU - Dubrovnik-Cilipi, Croatia
Distance from station: JZ 352km
Ažurirano: 12/08/2020 11:00
Vedro
Vedro
 Pravac vetra JJZ
Vetar: JJZ 13 km/h
Temperatura: 28°C
Heat Index: 30°C
Tačka rose: 21°C
Vlažnost: 66%
Pritisak: 1016 hPa
Pregled: Vedro
Vidljivost: greater than 10 km
2020/08/12 09:00 LDDU 120900Z 20007KT 170V230 CAVOK 28/21 Q1016 NOSIG
LQMO - Mostar Airport, Bosnia-Herzegovina
Distance from station: Z 359km
Ažurirano: 12/08/2020 11:00
Few Clouds
Few Clouds
 Pravac vetra varies
Vetar: varies 6 km/h
Temperatura: 31°C
Heat Index: 33°C
Tačka rose: 19°C
Vlažnost: 49%
Pritisak: 1014 hPa
Oblaci: Few Clouds
Vidljivost: 10 km
Cloud details: Few Clouds 1372 m
2020/08/12 09:00 LQMO 120900Z VRB03KT 9999 FEW045 31/19 Q1014
 
LQSA - Sarajevo/Butmir, Yugoslavia
Distance from station: Z 311km
Ažurirano: 12/08/2020 11:00
Few Clouds
Few Clouds
 Pravac vetra varies
Vetar: varies 4 km/h
Temperatura: 23°C
Tačka rose: 18°C
Vlažnost: 74%
Pritisak: 1019 hPa
Oblaci: Few Clouds
Vidljivost: 8 km
Cloud details: Few Clouds 1219 m
2020/08/12 09:00 LQSA 120900Z VRB02KT 8000 FEW040 23/18 Q1019 NOSIG
LDSP - Split/Kastel Sta, Croatia
Distance from station: Z 468km
Ažurirano: 12/08/2020 11:00
Few Clouds
Few Clouds
 Pravac vetra IJI
Vetar: IJI 7 km/h
Temperatura: 31°C
Heat Index: 32°C
Tačka rose: 17°C
Vlažnost: 43%
Pritisak: 1015 hPa
Oblaci: Few Clouds
Vidljivost: 10 km
Cloud details: Few Clouds 1524 m
2020/08/12 09:00 LDSP 120900Z 11004KT 080V140 9999 FEW050 31/17 Q1015 NOSIG
LDZD - Zadar/Zemunik, Croatia
Distance from station: ZSZ 567km
Ažurirano: 12/08/2020 11:00
Vedro
Vedro
 Pravac vetra varies
Vetar: varies 11 km/h
Temperatura: 32°C
Heat Index: 33°C
Tačka rose: 17°C
Vlažnost: 41%
Pritisak: 1016 hPa
Pregled: Vedro
Vidljivost: greater than 10 km
2020/08/12 09:00 LDZD 120900Z VRB06KT CAVOK 32/17 Q1016 NOSIG
 
LDZA - Zagreb/Pleso, Croatia
Distance from station: SZ 555km
Ažurirano: 12/08/2020 11:00
Few Clouds
Few Clouds
 Pravac vetra varies
Vetar: varies 4 km/h
Temperatura: 26°C
Tačka rose: 20°C
Vlažnost: 70%
Pritisak: 1018 hPa
Oblaci: Few Clouds
Vidljivost: 10 km
Cloud details: Few Clouds 1219 m
2020/08/12 09:00 LDZA 120900Z VRB02KT 9999 FEW040 26/20 Q1018 NOSIG
LJCE - Cerklje, Slovenia
Distance from station: SZ 680km
Ažurirano: 12/08/2020 11:00
Few Clouds
Few Clouds
 Pravac vetra I
Vetar: I 7 km/h
Temperatura: 26°C
Tačka rose: 18°C
Vlažnost: 61%
Pritisak: 1018 hPa
Oblaci: Few Clouds
Vidljivost: 10 km
Cloud details: Few Clouds 1067 m
2020/08/12 09:00 LJCE 120900Z 08004KT 010V130 9999 FEW035 26/18 Q1018 RMK BLU
LJMB - Maribor, Slovenia
Distance from station: SZ 616km
Ažurirano: 12/08/2020 11:00
Few Clouds
Few Clouds
 Pravac vetra varies
Vetar: varies 4 km/h
Temperatura: 25°C
Tačka rose: 18°C
Vlažnost: 65%
Pritisak: 1019 hPa
Oblaci: Few Clouds
Vidljivost: 10 km
Cloud details: Few Clouds 1067 m
2020/08/12 09:00 LJMB 120900Z VRB02KT 9999 FEW035 25/18 Q1019
 
LJLJ - Ljubljana/Brnik, Slovenia
Distance from station: SZ 671km
Ažurirano: 12/08/2020 11:00
Few Clouds
Few Clouds
 Pravac vetra varies
Vetar: varies 4 km/h
Temperatura: 25°C
Tačka rose: 18°C
Vlažnost: 65%
Pritisak: 1019 hPa
Oblaci: Few Clouds
Vidljivost: 10 km
Cloud details: Few Clouds 1280 m
2020/08/12 09:00 LJLJ 120900Z VRB02KT 9999 FEW042 25/18 Q1019 NOSIG
LDRI - Rijeka, Croatia
Distance from station: SZ 650km
Ažurirano: 12/08/2020 11:00
Vedro
Vedro
 Pravac vetra ZJZ
Vetar: ZJZ 9 km/h
Temperatura: 28°C
Heat Index: 29°C
Tačka rose: 20°C
Vlažnost: 62%
Pritisak: 1016 hPa
Pregled: Vedro
Vidljivost: greater than 10 km
2020/08/12 09:00 LDRI 120900Z 25005KT 200V300 CAVOK 28/20 Q1016
LDPL - Pula, Croatia
Distance from station: ZSZ 686km
Ažurirano: 12/08/2020 11:00
Vedro
Vedro
 Pravac vetra JI
Vetar: JI 9 km/h
Temperatura: 31°C
Heat Index: 32°C
Tačka rose: 18°C
Vlažnost: 46%
Pritisak: 1016 hPa
Pregled: Vedro
Vidljivost: greater than 10 km
2020/08/12 09:00 LDPL 120900Z 14005KT 080V180 CAVOK 31/18 Q1016 NOSIG
 
LJPZ - Portorož, Slovenia
Distance from station: ZSZ 720km
Ažurirano: 12/08/2020 11:00
Vedro
Vedro
 Pravac vetra ZSZ
Vetar: ZSZ 7 km/h
Temperatura: 29°C
Heat Index: 31°C
Tačka rose: 21°C
Vlažnost: 62%
Pritisak: 1015 hPa
Pregled: Vedro
Vidljivost: greater than 10 km
2020/08/12 09:00 LJPZ 120900Z 29004KT 260V350 CAVOK 29/21 Q1015